createdAt,value
2022-11-27T00:00:59.113Z,10.80
2022-11-27T00:03:29.112Z,9.88
2022-11-27T00:05:59.582Z,9.73
2022-11-27T00:08:27.492Z,9.80
2022-11-27T00:10:55.417Z,9.73
2022-11-27T00:13:23.452Z,9.65
2022-11-27T00:15:51.802Z,9.15
2022-11-27T00:18:19.805Z,9.20
2022-11-27T00:20:49.183Z,8.20
2022-11-27T00:23:17.169Z,7.43
2022-11-27T00:25:51.805Z,7.70
2022-11-27T00:30:47.944Z,8.45
2022-11-27T00:33:15.908Z,8.02
2022-11-27T00:35:46.138Z,7.72
2022-11-27T00:38:15.460Z,7.65
2022-11-27T00:40:43.633Z,7.57
2022-11-27T00:43:11.563Z,7.63
2022-11-27T00:45:39.601Z,7.38
2022-11-27T00:48:07.564Z,7.63
2022-11-27T00:50:35.521Z,6.88
2022-11-27T00:53:05.538Z,7.13
2022-11-27T00:55:34.771Z,6.85
2022-11-27T00:58:02.754Z,6.85
2022-11-27T01:00:30.624Z,6.50
2022-11-27T01:02:58.530Z,6.88
2022-11-27T01:05:26.546Z,6.32
2022-11-27T01:07:54.600Z,6.63
2022-11-27T01:10:22.727Z,6.70
2022-11-27T01:12:52.007Z,6.53
2022-11-27T01:15:19.927Z,6.47
2022-11-27T01:17:47.995Z,6.03
2022-11-27T01:20:18.104Z,6.38
2022-11-27T01:22:45.988Z,6.50
2022-11-27T01:25:13.983Z,6.35
2022-11-27T01:27:44.748Z,5.93
2022-11-27T01:30:15.503Z,5.93
2022-11-27T01:32:43.435Z,5.60
2022-11-27T01:35:11.380Z,5.72
2022-11-27T01:37:40.475Z,5.97
2022-11-27T01:40:09.894Z,5.75
2022-11-27T01:42:37.806Z,5.40
2022-11-27T01:45:06.335Z,6.05
2022-11-27T01:47:44.830Z,5.25
2022-11-27T01:50:22.424Z,5.47
2022-11-27T01:52:54.330Z,5.03
2022-11-27T01:55:28.225Z,4.97
2022-11-27T01:58:00.036Z,5.30
2022-11-27T02:00:28.691Z,5.25
2022-11-27T02:02:58.127Z,5.40
2022-11-27T02:05:28.587Z,5.70
2022-11-27T02:07:58.597Z,4.63
2022-11-27T02:10:39.298Z,5.25
2022-11-27T02:13:14.391Z,4.43
2022-11-27T02:15:47.949Z,4.95
2022-11-27T02:18:23.736Z,5.25
2022-11-27T02:20:56.443Z,5.40
2022-11-27T02:23:53.274Z,4.93
2022-11-27T02:27:06.272Z,4.90
2022-11-27T02:32:11.407Z,5.07
2022-11-27T02:34:47.704Z,4.35
2022-11-27T02:37:23.909Z,4.97
2022-11-27T02:39:58.095Z,4.65
2022-11-27T02:42:31.042Z,4.53
2022-11-27T02:45:04.960Z,4.80
2022-11-27T02:47:33.805Z,4.70
2022-11-27T02:50:03.500Z,4.40
2022-11-27T02:52:33.918Z,4.05
2022-11-27T02:55:06.852Z,3.97
2022-11-27T02:57:38.353Z,4.70
2022-11-27T03:00:10.393Z,3.97
2022-11-27T03:02:42.516Z,3.83
2022-11-27T03:05:16.500Z,4.20
2022-11-27T03:07:50.561Z,3.78
2022-11-27T03:10:22.888Z,3.83
2022-11-27T03:15:21.102Z,3.72
2022-11-27T03:17:56.321Z,4.15
2022-11-27T03:20:28.917Z,4.35
2022-11-27T03:22:58.093Z,4.10
2022-11-27T03:25:26.293Z,3.75
2022-11-27T03:27:59.377Z,3.85
2022-11-27T03:30:28.926Z,3.47
2022-11-27T03:32:56.991Z,4.00
2022-11-27T03:35:28.056Z,3.42
2022-11-27T03:37:56.752Z,3.70
2022-11-27T03:40:30.377Z,3.67
2022-11-27T03:43:04.860Z,4.03
2022-11-27T03:45:39.652Z,3.70
2022-11-27T03:48:22.998Z,3.70
2022-11-27T03:51:03.908Z,3.60
2022-11-27T03:53:39.266Z,3.58
2022-11-27T03:56:12.482Z,3.35
2022-11-27T03:58:46.094Z,3.70
2022-11-27T04:01:19.638Z,3.70
2022-11-27T04:03:47.634Z,3.53
2022-11-27T04:06:15.644Z,3.80
2022-11-27T04:08:47.499Z,3.25
2022-11-27T04:11:15.684Z,3.10
2022-11-27T04:13:43.573Z,3.33
2022-11-27T04:16:11.784Z,3.30
2022-11-27T04:18:41.196Z,3.25
2022-11-27T04:21:10.287Z,3.33
2022-11-27T04:23:38.771Z,3.25
2022-11-27T04:26:06.968Z,3.60
2022-11-27T04:28:34.985Z,3.03
2022-11-27T04:31:03.267Z,3.20
2022-11-27T04:33:31.600Z,3.03
2022-11-27T04:36:01.087Z,3.05
2022-11-27T04:38:29.284Z,3.17
2022-11-27T04:40:57.925Z,3.28
2022-11-27T04:43:25.956Z,2.88
2022-11-27T04:45:53.868Z,3.00
2022-11-27T04:48:21.867Z,3.20
2022-11-27T04:50:50.073Z,3.40
2022-11-27T04:53:19.411Z,3.20
2022-11-27T04:55:47.356Z,2.97
2022-11-27T04:58:15.256Z,3.05
2022-11-27T05:00:43.200Z,2.90
2022-11-27T05:03:12.130Z,2.90
2022-11-27T05:05:40.120Z,2.90
2022-11-27T05:08:08.048Z,2.97
2022-11-27T05:10:37.410Z,3.10
2022-11-27T05:13:05.615Z,2.47
2022-11-27T05:15:33.497Z,2.42
2022-11-27T05:18:01.407Z,2.92
2022-11-27T05:20:29.307Z,3.38
2022-11-27T05:22:57.230Z,2.78
2022-11-27T05:25:25.180Z,3.08
2022-11-27T05:27:54.431Z,3.10
2022-11-27T05:30:22.370Z,3.08
2022-11-27T05:32:50.379Z,2.70
2022-11-27T05:35:18.421Z,3.00
2022-11-27T05:37:46.382Z,2.80
2022-11-27T05:40:14.839Z,2.63
2022-11-27T05:42:45.573Z,2.70
2022-11-27T05:45:14.924Z,3.00
2022-11-27T05:47:42.963Z,2.40
2022-11-27T05:50:11.192Z,2.60
2022-11-27T05:52:39.158Z,2.78
2022-11-27T05:55:08.183Z,2.70
2022-11-27T05:57:36.174Z,2.75
2022-11-27T06:00:06.056Z,2.95
2022-11-27T06:02:35.430Z,2.58
2022-11-27T06:05:03.468Z,2.60
2022-11-27T06:07:32.283Z,2.88
2022-11-27T06:10:00.268Z,2.40
2022-11-27T06:12:28.210Z,2.70
2022-11-27T06:14:56.123Z,2.45
2022-11-27T06:17:24.076Z,3.17
2022-11-27T06:19:53.369Z,3.10
2022-11-27T06:22:21.317Z,2.40
2022-11-27T06:24:50.346Z,2.88
2022-11-27T06:27:18.314Z,2.97
2022-11-27T06:29:46.212Z,2.40
2022-11-27T06:32:14.253Z,2.63
2022-11-27T06:34:42.439Z,2.67
2022-11-27T06:37:13.403Z,2.50
2022-11-27T06:39:41.652Z,2.70
2022-11-27T06:42:10.052Z,2.72
2022-11-27T06:44:38.055Z,2.70
2022-11-27T06:47:06.412Z,2.83
2022-11-27T06:49:34.365Z,2.60
2022-11-27T06:52:02.493Z,2.55
2022-11-27T06:54:31.847Z,3.28
2022-11-27T06:56:59.786Z,2.80
2022-11-27T06:59:27.776Z,2.50
2022-11-27T07:01:55.765Z,2.58
2022-11-27T07:04:24.045Z,2.50
2022-11-27T07:06:51.950Z,2.83
2022-11-27T07:09:19.894Z,2.65
2022-11-27T07:11:49.196Z,2.20
2022-11-27T07:14:17.145Z,2.78
2022-11-27T07:16:45.113Z,2.50
2022-11-27T07:19:13.641Z,2.80
2022-11-27T07:21:41.999Z,2.47
2022-11-27T07:24:10.060Z,2.90
2022-11-27T07:26:38.013Z,2.80
2022-11-27T07:29:07.269Z,2.80
2022-11-27T07:31:35.307Z,2.75
2022-11-27T07:34:05.813Z,2.72
2022-11-27T07:36:36.270Z,3.40
2022-11-27T07:39:04.153Z,2.75
2022-11-27T07:41:34.060Z,2.97
2022-11-27T07:44:02.368Z,3.33
2022-11-27T07:46:31.662Z,3.28
2022-11-27T07:49:00.655Z,2.78
2022-11-27T07:51:28.916Z,3.20
2022-11-27T07:53:56.901Z,3.03
2022-11-27T07:56:24.879Z,3.00
2022-11-27T07:58:52.825Z,3.30
2022-11-27T08:01:21.749Z,2.90
2022-11-27T08:03:51.817Z,3.03
2022-11-27T08:06:21.329Z,3.40
2022-11-27T08:08:50.261Z,3.28
2022-11-27T08:11:20.531Z,2.85
2022-11-27T08:13:48.737Z,3.00
2022-11-27T08:16:17.497Z,3.15
2022-11-27T08:18:45.442Z,3.10
2022-11-27T08:21:14.980Z,2.92
2022-11-27T08:23:45.163Z,3.05
2022-11-27T08:26:14.244Z,3.53
2022-11-27T08:28:42.912Z,3.10
2022-11-27T08:31:16.040Z,3.38
2022-11-27T08:33:46.212Z,3.20
2022-11-27T08:36:18.435Z,3.17
2022-11-27T08:38:46.796Z,3.15
2022-11-27T08:41:16.973Z,3.42
2022-11-27T08:43:47.132Z,2.85
2022-11-27T08:46:15.175Z,3.47
2022-11-27T08:48:43.523Z,3.53
2022-11-27T08:51:13.547Z,3.10
2022-11-27T08:53:45.537Z,3.55
2022-11-27T08:56:17.734Z,2.90
2022-11-27T08:58:46.457Z,3.25
2022-11-27T09:01:17.554Z,3.53
2022-11-27T09:03:48.076Z,3.65
2022-11-27T09:06:18.556Z,3.35
2022-11-27T09:08:48.184Z,3.35
2022-11-27T09:11:17.741Z,3.30
2022-11-27T09:13:46.570Z,3.40
2022-11-27T09:16:16.533Z,3.08
2022-11-27T09:18:45.815Z,3.15
2022-11-27T09:21:15.894Z,3.28
2022-11-27T09:23:43.916Z,3.45
2022-11-27T09:26:16.545Z,3.53
2022-11-27T09:28:45.521Z,3.50
2022-11-27T09:31:15.380Z,3.22
2022-11-27T09:33:44.301Z,3.40
2022-11-27T09:36:13.693Z,3.67
2022-11-27T09:38:42.475Z,3.50
2022-11-27T09:41:32.971Z,3.45
2022-11-27T09:44:06.720Z,3.58
2022-11-27T09:46:40.030Z,3.22
2022-11-27T09:49:10.929Z,3.42
2022-11-27T09:51:43.397Z,3.47
2022-11-27T09:54:18.698Z,3.50
2022-11-27T09:56:52.973Z,3.40
2022-11-27T09:59:23.847Z,3.42
2022-11-27T10:01:52.400Z,3.53
2022-11-27T10:04:22.130Z,3.60
2022-11-27T10:07:05.520Z,3.15
2022-11-27T10:09:48.074Z,3.60
2022-11-27T10:12:29.781Z,3.22
2022-11-27T10:15:06.438Z,3.78
2022-11-27T10:17:40.905Z,3.50
2022-11-27T10:20:20.077Z,3.28
2022-11-27T10:22:55.030Z,3.45
2022-11-27T10:25:29.542Z,3.70
2022-11-27T10:28:13.281Z,3.40
2022-11-27T10:30:48.007Z,3.35
2022-11-27T10:33:21.335Z,3.63
2022-11-27T10:35:50.783Z,3.75
2022-11-27T10:38:22.026Z,3.33
2022-11-27T10:40:58.086Z,3.13
2022-11-27T10:43:27.473Z,3.13
2022-11-27T10:45:59.036Z,3.22
2022-11-27T10:48:28.520Z,3.40
2022-11-27T10:50:56.478Z,3.28
2022-11-27T10:53:28.205Z,3.20
2022-11-27T10:56:07.525Z,3.20
2022-11-27T10:58:43.820Z,3.40
2022-11-27T11:01:16.588Z,3.10
2022-11-27T11:03:44.733Z,3.47
2022-11-27T11:06:21.771Z,3.42
2022-11-27T11:09:03.727Z,3.70
2022-11-27T11:11:32.038Z,3.00
2022-11-27T11:14:01.415Z,3.28
2022-11-27T11:16:35.304Z,3.20
2022-11-27T11:19:06.201Z,3.70
2022-11-27T11:21:39.089Z,2.97
2022-11-27T11:24:13.563Z,3.22
2022-11-27T11:26:46.692Z,3.33
2022-11-27T11:29:29.490Z,3.03
2022-11-27T11:31:59.429Z,3.47
2022-11-27T11:34:29.720Z,3.78
2022-11-27T11:37:03.129Z,3.47
2022-11-27T11:39:33.511Z,3.13
2022-11-27T11:42:01.513Z,3.20
2022-11-27T11:44:37.386Z,3.42
2022-11-27T11:47:05.812Z,3.30
2022-11-27T11:49:37.078Z,3.25
2022-11-27T11:52:22.376Z,3.38
2022-11-27T11:55:00.975Z,3.15
2022-11-27T11:58:16.007Z,3.53
2022-11-27T12:01:25.017Z,3.33
2022-11-27T12:03:52.390Z,3.30
2022-11-27T12:06:37.586Z,3.40
2022-11-27T12:09:35.189Z,3.30
2022-11-27T12:12:14.931Z,3.45
2022-11-27T12:14:51.497Z,3.20
2022-11-27T12:17:36.698Z,3.55
2022-11-27T12:20:15.695Z,3.70
2022-11-27T12:23:19.391Z,4.07
2022-11-27T12:25:58.001Z,3.42
2022-11-27T12:28:45.952Z,3.47
2022-11-27T12:31:25.108Z,3.10
2022-11-27T12:34:02.660Z,3.30
2022-11-27T12:36:49.432Z,2.97
2022-11-27T12:39:25.657Z,3.90
2022-11-27T12:42:02.490Z,3.22
2022-11-27T12:44:38.518Z,3.53
2022-11-27T12:47:11.920Z,3.20
2022-11-27T12:49:45.627Z,2.88
2022-11-27T12:52:18.349Z,2.95
2022-11-27T12:54:52.083Z,3.53
2022-11-27T12:57:25.095Z,3.70
2022-11-27T12:59:58.517Z,3.40
2022-11-27T13:02:32.600Z,3.10
2022-11-27T13:05:07.251Z,2.95
2022-11-27T13:07:44.736Z,3.03
2022-11-27T13:10:28.317Z,3.03
2022-11-27T13:13:03.752Z,2.78
2022-11-27T13:15:37.397Z,3.30
2022-11-27T13:18:17.038Z,3.00
2022-11-27T13:20:52.368Z,3.03
2022-11-27T13:23:21.124Z,3.00
2022-11-27T13:25:53.734Z,3.20
2022-11-27T13:28:27.699Z,3.08
2022-11-27T13:30:59.982Z,2.85
2022-11-27T13:33:38.563Z,3.13
2022-11-27T13:36:18.718Z,3.35
2022-11-27T13:38:47.677Z,3.75
2022-11-27T13:41:22.408Z,3.55
2022-11-27T13:43:51.436Z,3.42
2022-11-27T13:46:25.844Z,3.60
2022-11-27T13:48:57.574Z,3.10
2022-11-27T13:51:29.418Z,3.20
2022-11-27T13:54:12.921Z,2.95
2022-11-27T13:56:41.691Z,2.85
2022-11-27T13:59:20.803Z,2.92
2022-11-27T14:01:59.935Z,3.55
2022-11-27T14:04:28.861Z,3.90
2022-11-27T14:07:03.590Z,3.80
2022-11-27T14:09:39.144Z,4.57
2022-11-27T14:12:25.702Z,4.95
2022-11-27T14:15:07.620Z,4.30
2022-11-27T14:17:38.938Z,4.88
2022-11-27T14:20:22.208Z,3.47
2022-11-27T14:23:11.260Z,3.40
2022-11-27T14:25:41.656Z,3.60
2022-11-27T14:28:16.342Z,3.42
2022-11-27T14:30:49.236Z,3.33
2022-11-27T14:33:22.555Z,4.43
2022-11-27T14:35:51.365Z,3.40
2022-11-27T14:38:21.344Z,3.53
2022-11-27T14:40:50.342Z,3.70
2022-11-27T14:43:20.014Z,3.78
2022-11-27T14:45:51.438Z,3.28
2022-11-27T14:48:24.720Z,3.05
2022-11-27T14:50:55.446Z,3.15
2022-11-27T14:53:28.657Z,2.92
2022-11-27T14:55:59.422Z,3.95
2022-11-27T14:58:29.811Z,3.45
2022-11-27T15:01:00.538Z,3.25
2022-11-27T15:03:28.881Z,3.25
2022-11-27T15:05:59.679Z,3.47
2022-11-27T15:08:30.887Z,3.22
2022-11-27T15:11:00.715Z,3.22
2022-11-27T15:13:32.163Z,3.28
2022-11-27T15:16:04.523Z,3.70
2022-11-27T15:18:37.204Z,3.40
2022-11-27T15:21:11.737Z,3.00
2022-11-27T15:23:45.984Z,3.20
2022-11-27T15:26:20.021Z,3.20
2022-11-27T15:28:54.141Z,3.13
2022-11-27T15:31:31.275Z,3.53
2022-11-27T15:34:05.608Z,2.92
2022-11-27T15:36:38.418Z,3.33
2022-11-27T15:39:18.237Z,3.20
2022-11-27T15:41:55.243Z,3.15
2022-11-27T15:44:24.172Z,3.22
2022-11-27T15:46:55.897Z,3.08
2022-11-27T15:49:24.068Z,3.55
2022-11-27T15:51:52.148Z,3.33
2022-11-27T15:54:21.462Z,3.35
2022-11-27T15:56:49.768Z,3.28
2022-11-27T15:59:20.505Z,2.95
2022-11-27T16:01:49.474Z,3.17
2022-11-27T16:04:17.840Z,3.20
2022-11-27T16:06:48.163Z,3.25
2022-11-27T16:09:16.241Z,3.03
2022-11-27T16:11:45.668Z,3.67
2022-11-27T16:14:13.817Z,3.40
2022-11-27T16:16:42.053Z,3.30
2022-11-27T16:19:12.315Z,3.47
2022-11-27T16:21:40.329Z,3.05
2022-11-27T16:24:11.818Z,3.75
2022-11-27T16:26:40.563Z,3.90
2022-11-27T16:29:11.142Z,4.15
2022-11-27T16:31:39.169Z,3.60
2022-11-27T16:34:07.181Z,4.00
2022-11-27T16:36:35.344Z,3.67
2022-11-27T16:39:03.331Z,3.50
2022-11-27T16:41:31.321Z,3.65
2022-11-27T16:43:59.268Z,3.80
2022-11-27T16:46:30.301Z,3.38
2022-11-27T16:49:00.843Z,4.17
2022-11-27T16:51:32.019Z,3.80
2022-11-27T16:54:01.720Z,3.97
2022-11-27T16:56:31.306Z,3.83
2022-11-27T16:59:03.182Z,4.07
2022-11-27T17:04:03.710Z,3.75
2022-11-27T17:06:33.066Z,3.50
2022-11-27T17:09:02.352Z,3.58
2022-11-27T17:11:33.743Z,3.47
2022-11-27T17:14:03.218Z,3.70
2022-11-27T17:16:32.984Z,3.75
2022-11-27T17:19:01.063Z,3.70
2022-11-27T17:21:30.823Z,3.60
2022-11-27T17:24:00.824Z,3.53
2022-11-27T17:26:30.775Z,3.40
2022-11-27T17:28:59.569Z,3.50
2022-11-27T17:31:32.616Z,3.63
2022-11-27T17:34:02.334Z,3.40
2022-11-27T17:36:36.478Z,3.40
2022-11-27T17:39:06.341Z,3.50
2022-11-27T17:41:34.525Z,3.53
2022-11-27T17:44:05.182Z,3.60
2022-11-27T17:46:34.359Z,3.40
2022-11-27T17:49:05.411Z,3.60
2022-11-27T17:51:35.294Z,3.10
2022-11-27T17:54:05.494Z,3.85
2022-11-27T17:56:34.487Z,3.60
2022-11-27T17:59:02.612Z,3.67
2022-11-27T18:01:33.686Z,3.25
2022-11-27T18:04:04.170Z,3.65
2022-11-27T18:06:33.415Z,3.47
2022-11-27T18:09:01.706Z,3.88
2022-11-27T18:11:33.760Z,3.22
2022-11-27T18:14:02.611Z,3.47
2022-11-27T18:16:33.197Z,3.92
2022-11-27T18:19:05.733Z,4.00
2022-11-27T18:21:33.988Z,3.67
2022-11-27T18:29:39.398Z,3.42
2022-11-27T18:32:07.658Z,3.63
2022-11-27T18:34:37.144Z,3.60
2022-11-27T18:37:05.827Z,3.40
2022-11-27T18:39:34.258Z,3.50
2022-11-27T18:42:03.286Z,3.67
2022-11-27T18:44:31.353Z,3.33
2022-11-27T18:46:59.555Z,3.97
2022-11-27T18:49:27.579Z,3.83
2022-11-27T18:51:56.891Z,3.90
2022-11-27T18:54:25.292Z,3.55
2022-11-27T18:56:53.197Z,3.88
2022-11-27T18:59:21.198Z,3.75
2022-11-27T19:01:51.663Z,3.65
2022-11-27T19:04:19.715Z,3.42
2022-11-27T19:06:47.899Z,3.70
2022-11-27T19:09:18.085Z,3.63
2022-11-27T19:11:46.036Z,3.53
2022-11-27T19:14:14.201Z,3.25
2022-11-27T19:16:48.657Z,3.65
2022-11-27T19:22:07.542Z,3.63
2022-11-27T19:24:38.211Z,4.30
2022-11-27T19:27:06.324Z,3.90
2022-11-27T19:29:34.352Z,3.95
2022-11-27T19:32:02.951Z,4.25
2022-11-27T19:34:30.971Z,3.63
2022-11-27T19:36:59.046Z,4.00
2022-11-27T19:39:27.921Z,4.72
2022-11-27T19:41:58.241Z,4.40
2022-11-27T19:44:26.232Z,4.60
2022-11-27T19:46:54.834Z,4.97
2022-11-27T19:49:23.694Z,5.13
2022-11-27T19:51:51.580Z,4.95
2022-11-27T19:54:20.563Z,5.30
2022-11-27T19:56:48.460Z,5.10
2022-11-27T19:59:21.515Z,5.18
2022-11-27T20:01:53.609Z,4.40
2022-11-27T20:04:21.725Z,5.35
2022-11-27T20:06:52.509Z,6.00
2022-11-27T20:09:21.019Z,4.97
2022-11-27T20:11:49.049Z,4.85
2022-11-27T20:14:20.623Z,5.07
2022-11-27T20:16:48.685Z,5.28
2022-11-27T20:19:17.098Z,5.50
2022-11-27T20:21:45.201Z,5.10
2022-11-27T20:24:13.220Z,5.22
2022-11-27T20:26:43.008Z,6.18
2022-11-27T20:29:12.050Z,8.18
2022-11-27T20:31:44.610Z,7.22
2022-11-27T20:34:18.720Z,7.65
2022-11-27T20:36:46.816Z,7.43
2022-11-27T20:39:20.563Z,7.32
2022-11-27T20:41:50.847Z,7.50
2022-11-27T20:44:19.186Z,7.63
2022-11-27T20:46:52.070Z,7.68
2022-11-27T20:49:20.687Z,7.97
2022-11-27T20:51:50.576Z,11.77
2022-11-27T20:54:19.036Z,11.43
2022-11-27T20:56:47.659Z,11.25
2022-11-27T20:59:15.677Z,10.35
2022-11-27T21:01:43.712Z,11.10
2022-11-27T21:04:20.654Z,9.82
2022-11-27T21:06:48.974Z,10.23
2022-11-27T21:09:17.905Z,9.70
2022-11-27T21:11:47.390Z,10.30
2022-11-27T21:14:16.714Z,9.80
2022-11-27T21:16:48.442Z,9.18
2022-11-27T21:19:20.896Z,9.95
2022-11-27T21:21:49.835Z,9.25
2022-11-27T21:24:18.619Z,8.85
2022-11-27T21:26:47.437Z,8.63
2022-11-27T21:29:15.953Z,8.60
2022-11-27T21:31:47.022Z,8.75
2022-11-27T21:34:16.979Z,8.65
2022-11-27T21:36:45.128Z,8.52
2022-11-27T21:39:19.998Z,8.20
2022-11-27T21:41:49.406Z,7.72
2022-11-27T21:44:18.119Z,7.78
2022-11-27T21:46:46.439Z,7.85
2022-11-27T21:49:16.672Z,7.68
2022-11-27T21:51:46.180Z,8.15
2022-11-27T21:54:15.947Z,8.05
2022-11-27T21:56:43.972Z,7.40
2022-11-27T21:59:15.014Z,7.78
2022-11-27T22:01:45.221Z,6.55
2022-11-27T22:04:13.571Z,7.30
2022-11-27T22:06:43.153Z,6.68
2022-11-27T22:09:15.595Z,6.63
2022-11-27T22:11:44.895Z,7.00
2022-11-27T22:14:14.106Z,6.22
2022-11-27T22:16:46.687Z,6.68
2022-11-27T22:19:16.457Z,5.65
2022-11-27T22:21:45.295Z,6.32
2022-11-27T22:24:19.359Z,6.05
2022-11-27T22:26:48.482Z,5.75
2022-11-27T22:29:16.756Z,6.07
2022-11-27T22:31:44.755Z,5.95
2022-11-27T22:34:12.723Z,5.57
2022-11-27T22:36:40.667Z,5.30
2022-11-27T22:39:09.656Z,5.65
2022-11-27T22:41:40.646Z,5.63
2022-11-27T22:44:09.433Z,6.30
2022-11-27T22:46:40.743Z,5.60
2022-11-27T22:49:09.278Z,5.25
2022-11-27T22:51:38.089Z,5.70
2022-11-27T22:54:08.203Z,5.47
2022-11-27T22:56:36.485Z,5.05
2022-11-27T22:59:30.958Z,5.07
2022-11-27T23:01:54.989Z,5.00
2022-11-27T23:04:22.923Z,4.93
2022-11-27T23:06:50.845Z,5.15
2022-11-27T23:09:19.353Z,4.88
2022-11-27T23:11:48.433Z,4.65
2022-11-27T23:14:18.451Z,4.68
2022-11-27T23:16:46.581Z,4.47
2022-11-27T23:19:14.603Z,4.82
2022-11-27T23:21:42.865Z,5.10
2022-11-27T23:24:13.288Z,4.95
2022-11-27T23:26:41.327Z,4.60
2022-11-27T23:29:09.563Z,4.38
2022-11-27T23:31:39.700Z,4.40
2022-11-27T23:34:10.713Z,4.30
2022-11-27T23:36:38.721Z,4.38
2022-11-27T23:39:08.854Z,4.30
2022-11-27T23:41:36.854Z,4.30
2022-11-27T23:44:04.824Z,4.07
2022-11-27T23:46:32.991Z,4.35
2022-11-27T23:49:02.355Z,4.82
2022-11-27T23:51:32.526Z,4.35
2022-11-27T23:54:01.408Z,4.15
2022-11-27T23:56:31.772Z,4.38
2022-11-27T23:59:00.625Z,4.72
